Time;durP1;ratioP1;P1;durP2;ratioP2;P2;SDS_P1;SDS_P2;PMS_P1;PMS_P2;Temp;Humidity;BMP_temperature;BMP_pressure;BME280_temperature;BME280_humidity;BME280_pressure;Samples;Min_cycle;Max_cycle;Signal;HPM_P1;HPM_P2
2022/01/09 00:00:26;;;;;;;5.00;1.70;;;;;;;2.02;84.80;98606.42;106367;1292;61109;-78
2022/01/09 00:02:53;;;;;;;3.10;1.20;;;;;;;2.00;84.64;98602.02;106656;1290;60626;-78
2022/01/09 00:05:20;;;;;;;1.60;1.00;;;;;;;2.00;84.81;98596.89;106629;1290;75742;-79
2022/01/09 00:07:47;;;;;;;2.20;0.90;;;;;;;1.98;84.86;98594.38;106538;1291;70427;-79
2022/01/09 00:10:14;;;;;;;2.70;1.40;;;;;;;1.96;85.01;98589.62;106493;1290;73980;-78
2022/01/09 00:12:41;;;;;;;1.80;0.90;;;;;;;1.94;85.02;98583.77;106451;1291;59953;-80
2022/01/09 00:15:09;;;;;;;2.00;1.10;;;;;;;1.91;85.25;98575.91;106675;1290;61200;-79
2022/01/09 00:17:36;;;;;;;2.80;1.40;;;;;;;1.88;85.38;98570.52;106481;1291;76357;-79
2022/01/09 00:20:05;;;;;;;2.50;1.20;;;;;;;1.86;85.44;98564.73;106574;1290;72148;-78
2022/01/09 00:22:40;;;;;;;2.00;1.00;;;;;;;1.83;85.76;98561.44;106389;1293;73439;-79
2022/01/09 00:25:07;;;;;;;3.30;1.50;;;;;;;1.80;85.87;98555.13;106498;1290;62698;-80
2022/01/09 00:27:36;;;;;;;2.60;1.30;;;;;;;1.80;85.96;98547.59;106702;1290;60321;-81
2022/01/09 00:30:09;;;;;;;1.30;0.80;;;;;;;1.82;86.10;98541.86;106617;1290;74727;-79
2022/01/09 00:32:36;;;;;;;2.30;1.20;;;;;;;1.84;85.98;98532.04;106618;1290;71581;-80
2022/01/09 00:35:04;;;;;;;3.20;1.20;;;;;;;1.87;85.99;98528.27;106666;1290;74125;-79
2022/01/09 00:37:31;;;;;;;0.90;0.60;;;;;;;1.89;85.88;98523.35;106690;1290;62675;-79
2022/01/09 00:39:57;;;;;;;3.50;0.80;;;;;;;1.93;85.53;98520.80;106731;1290;59032;-80
2022/01/09 00:42:24;;;;;;;2.00;1.10;;;;;;;1.97;85.30;98514.77;106479;1292;75145;-78
2022/01/09 00:44:51;;;;;;;2.10;1.00;;;;;;;2.01;85.30;98511.66;106729;1290;71408;-78
2022/01/09 00:47:17;;;;;;;2.30;1.30;;;;;;;2.03;85.28;98506.19;106249;1292;72924;-79
2022/01/09 00:49:44;;;;;;;1.60;0.80;;;;;;;2.05;85.18;98503.01;106545;1290;59891;-81
2022/01/09 00:52:10;;;;;;;2.40;1.00;;;;;;;2.08;85.23;98500.29;106744;1290;60716;-79
2022/01/09 00:54:37;;;;;;;2.30;1.20;;;;;;;2.11;84.99;98499.89;106670;1289;59246;-78
2022/01/09 00:57:04;;;;;;;2.40;1.20;;;;;;;2.14;84.83;98497.98;106704;1290;70910;-79
2022/01/09 00:59:31;;;;;;;3.30;1.20;;;;;;;2.17;84.72;98492.19;106635;1290;73898;-78
2022/01/09 01:01:57;;;;;;;3.00;1.60;;;;;;;2.20;84.70;98490.54;106517;1291;59100;-78
2022/01/09 01:04:24;;;;;;;3.20;1.80;;;;;;;2.21;84.59;98492.33;106701;1290;60336;-78
2022/01/09 01:06:51;;;;;;;2.80;1.20;;;;;;;2.24;84.41;98489.85;106463;1290;59197;-80
2022/01/09 01:09:20;;;;;;;2.40;1.30;;;;;;;2.26;84.15;98487.20;106675;1290;71363;-79
2022/01/09 01:11:50;;;;;;;2.50;1.10;;;;;;;2.30;84.36;98487.34;106370;1291;72800;-79
2022/01/09 01:16:42;;;;;;;2.00;1.30;;;;;;;2.30;84.05;98478.16;106594;1289;59267;-79
2022/01/09 01:19:11;;;;;;;2.50;1.10;;;;;;;2.32;84.10;98473.80;106654;1290;59209;-78
2022/01/09 01:21:37;;;;;;;1.90;1.10;;;;;;;2.33;84.29;98472.77;106743;1290;71354;-79
2022/01/09 01:24:04;;;;;;;3.80;1.20;;;;;;;2.34;84.44;98469.77;106744;1290;73213;-81
2022/01/09 01:26:30;;;;;;;1.80;1.30;;;;;;;2.34;84.25;98461.03;106742;1290;61491;-80
2022/01/09 01:28:57;;;;;;;1.70;0.80;;;;;;;2.35;84.27;98464.02;106629;1290;60648;-80
2022/01/09 01:31:24;;;;;;;2.30;1.00;;;;;;;2.35;84.21;98454.92;106662;1290;59842;-78
2022/01/09 01:33:50;;;;;;;2.10;1.00;;;;;;;2.36;84.42;98451.52;106395;1291;71346;-78
2022/01/09 01:36:17;;;;;;;2.20;0.90;;;;;;;2.36;84.41;98446.78;106544;1290;58556;-80
2022/01/09 01:38:46;;;;;;;3.40;1.10;;;;;;;2.37;84.47;98446.35;106541;1290;59208;-80
2022/01/09 01:41:13;;;;;;;2.00;1.50;;;;;;;2.36;84.58;98445.02;106676;1290;61156;-78
2022/01/09 01:43:40;;;;;;;2.40;1.30;;;;;;;2.36;84.57;98437.73;106504;1293;75122;-77
2022/01/09 01:46:06;;;;;;;3.60;1.30;;;;;;;2.37;84.62;98439.88;106276;1291;70346;-79
2022/01/09 01:48:33;;;;;;;3.10;0.90;;;;;;;2.39;84.47;98436.81;106502;1291;59184;-79
2022/01/09 01:51:02;;;;;;;2.70;1.20;;;;;;;2.43;84.35;98439.73;106692;1290;61153;-79
2022/01/09 01:53:29;;;;;;;1.70;1.00;;;;;;;2.44;84.07;98433.30;106683;1290;62250;-79
2022/01/09 01:55:56;;;;;;;2.10;1.30;;;;;;;2.46;84.18;98434.83;106487;1293;75264;-80
2022/01/09 01:58:24;;;;;;;2.60;1.10;;;;;;;2.46;84.35;98430.83;106758;1290;72426;-80
2022/01/09 02:00:52;;;;;;;2.00;0.80;;;;;;;2.45;84.17;98425.51;106733;1290;72795;-79
2022/01/09 02:03:19;;;;;;;2.70;1.20;;;;;;;2.46;84.02;98418.08;106724;1290;62374;-80
2022/01/09 02:05:46;;;;;;;1.50;0.70;;;;;;;2.48;83.92;98415.20;106668;1288;59897;-80
2022/01/09 02:08:13;;;;;;;2.10;1.10;;;;;;;2.51;83.86;98408.70;106728;1280;74996;-79
2022/01/09 02:10:41;;;;;;;3.70;1.50;;;;;;;2.51;83.86;98406.57;106485;1278;74262;-79
2022/01/09 02:13:08;;;;;;;3.50;1.00;;;;;;;2.51;83.63;98403.79;106715;1290;73153;-79
2022/01/09 02:15:44;;;;;;;2.10;0.90;;;;;;;2.51;83.61;98404.47;106663;1290;61158;-80
2022/01/09 02:18:51;;;;;;;2.20;1.50;;;;;;;2.55;83.90;98401.33;103762;1299;600842;-78
2022/01/09 02:21:18;;;;;;;3.60;1.10;;;;;;;2.54;83.61;98401.68;107011;1274;57194;-79
2022/01/09 02:23:46;;;;;;;2.60;0.90;;;;;;;2.54;83.80;98401.24;107056;1277;57373;-80
2022/01/09 02:26:18;;;;;;;3.10;0.90;;;;;;;2.54;83.84;98403.89;107197;1286;73883;-80
2022/01/09 02:28:47;;;;;;;2.40;0.90;;;;;;;2.54;83.92;98401.44;107148;1286;71729;-80
2022/01/09 02:31:15;;;;;;;2.00;0.70;;;;;;;2.55;84.00;98400.48;107007;1286;328994;-78
2022/01/09 02:33:41;;;;;;;1.40;0.90;;;;;;;2.56;83.94;98399.55;107324;1286;61627;-79
2022/01/09 02:36:09;;;;;;;1.70;1.00;;;;;;;2.57;84.04;98398.33;107238;1285;61929;-80
2022/01/09 02:38:36;;;;;;;3.80;1.00;;;;;;;2.56;84.19;98392.92;107278;1286;73575;-80
2022/01/09 02:41:03;;;;;;;1.30;0.80;;;;;;;2.56;84.09;98395.63;107309;1286;72692;-80
2022/01/09 02:43:29;;;;;;;1.70;0.80;;;;;;;2.57;84.27;98391.71;107229;1286;72405;-79
2022/01/09 02:48:39;;;;;;;2.00;1.00;;;;;;;2.56;84.77;98384.88;107328;1285;60593;-79
2022/01/09 02:51:14;;;;;;;3.50;1.00;;;;;;;2.55;84.99;98383.96;107501;1283;73544;-80
2022/01/09 02:53:46;;;;;;;2.30;1.00;;;;;;;2.54;85.09;98382.11;107641;1283;72396;-79
2022/01/09 02:56:14;;;;;;;2.00;0.80;;;;;;;2.53;85.45;98378.52;107624;1283;73223;-78
2022/01/09 02:58:41;;;;;;;2.00;0.90;;;;;;;2.52;85.59;98379.15;107481;1280;62498;-79
2022/01/09 03:01:10;;;;;;;6.40;1.00;;;;;;;2.53;85.72;98373.80;107520;1283;61866;-79
2022/01/09 03:03:38;;;;;;;1.90;0.60;;;;;;;2.55;85.73;98373.86;107683;1282;73391;-80
2022/01/09 03:06:04;;;;;;;1.90;0.70;;;;;;;2.55;85.82;98370.13;107845;1270;72108;-79
2022/01/09 03:08:31;;;;;;;2.50;0.80;;;;;;;2.55;85.86;98370.20;108149;1270;76886;-79
2022/01/09 03:10:57;;;;;;;1.90;0.90;;;;;;;2.54;86.01;98366.61;108036;1270;57539;-79
2022/01/09 03:13:24;;;;;;;1.60;1.00;;;;;;;2.53;86.15;98369.63;108047;1278;57728;-80
2022/01/09 03:15:51;;;;;;;1.40;0.70;;;;;;;2.53;86.31;98369.13;108017;1280;73363;-79
2022/01/09 03:18:17;;;;;;;1.60;0.80;;;;;;;2.53;86.67;98370.73;107986;1280;71509;-79
2022/01/09 03:20:46;;;;;;;1.00;0.60;;;;;;;2.53;86.83;98368.84;108138;1274;57555;-79
2022/01/09 03:23:12;;;;;;;1.80;0.80;;;;;;;2.53;87.23;98360.27;108031;1279;61862;-80
2022/01/09 03:25:39;;;;;;;2.20;1.10;;;;;;;2.52;87.53;98358.37;108024;1279;57514;-79
2022/01/09 03:28:06;;;;;;;5.00;1.50;;;;;;;2.52;87.64;98357.76;107957;1279;74867;-78
2022/01/09 03:30:32;;;;;;;1.90;1.10;;;;;;;2.52;87.90;98354.05;107815;1280;71483;-80
2022/01/09 03:32:59;;;;;;;1.70;0.90;;;;;;;2.51;88.51;98353.55;108046;1278;72925;-80
2022/01/09 03:35:27;;;;;;;2.10;1.00;;;;;;;2.48;88.62;98352.27;107900;1280;59773;-79
2022/01/09 03:37:54;;;;;;;1.00;0.50;;;;;;;2.49;88.26;98355.52;107686;1279;60341;-81
2022/01/09 03:40:25;;;;;;;1.40;1.30;;;;;;;2.48;88.67;98357.30;108037;1279;73290;-81
2022/01/09 03:42:52;;;;;;;1.20;0.70;;;;;;;2.48;88.66;98350.54;107993;1280;71472;-80
2022/01/09 03:45:22;;;;;;;1.90;0.90;;;;;;;2.48;89.02;98351.45;108004;1280;73197;-80
2022/01/09 03:47:50;;;;;;;2.40;1.20;;;;;;;2.48;89.04;98350.70;108041;1279;62589;-80
2022/01/09 03:50:17;;;;;;;1.70;1.00;;;;;;;2.48;88.95;98349.00;108037;1279;60428;-79
2022/01/09 03:52:47;;;;;;;1.00;0.70;;;;;;;2.48;89.08;98346.35;107962;1280;74543;-79
2022/01/09 03:55:15;;;;;;;1.70;0.90;;;;;;;2.48;89.29;98345.39;107965;1280;72800;-80
2022/01/09 03:57:42;;;;;;;1.50;0.80;;;;;;;2.48;89.38;98344.25;107958;1280;72939;-81
2022/01/09 04:00:13;;;;;;;1.50;1.00;;;;;;;2.49;89.56;98345.59;107978;1280;57434;-80
2022/01/09 04:02:41;;;;;;;2.50;0.70;;;;;;;2.50;89.21;98340.41;107768;1280;60616;-80
2022/01/09 04:05:08;;;;;;;1.90;1.20;;;;;;;2.50;89.27;98345.41;108142;1268;74556;-80
2022/01/09 04:07:35;;;;;;;1.80;0.70;;;;;;;2.52;89.55;98342.77;107775;1281;72786;-80
2022/01/09 04:10:04;;;;;;;2.60;0.90;;;;;;;2.52;89.79;98345.31;107919;1280;72222;-80
2022/01/09 04:12:35;;;;;;;2.50;1.00;;;;;;;2.53;89.66;98342.83;107582;1282;61586;-81
2022/01/09 04:15:07;;;;;;;1.80;1.10;;;;;;;2.54;89.66;98345.27;107732;1280;60970;-81
2022/01/09 04:17:51;;;;;;;2.80;1.00;;;;;;;2.56;90.01;98348.44;107787;1281;73366;-79
2022/01/09 04:20:24;;;;;;;1.30;0.70;;;;;;;2.56;90.28;98347.86;107943;1280;71688;-80
2022/01/09 04:22:51;;;;;;;1.90;0.70;;;;;;;2.55;90.05;98349.48;107712;1281;72963;-80
2022/01/09 04:25:18;;;;;;;1.60;1.10;;;;;;;2.56;90.44;98346.14;107911;1280;61607;-80
2022/01/09 04:27:46;;;;;;;2.40;1.10;;;;;;;2.55;90.82;98350.23;107760;1282;60798;-80
2022/01/09 04:30:13;;;;;;;1.70;0.90;;;;;;;2.55;90.88;98347.48;107470;1282;74718;-80
2022/01/09 04:32:42;;;;;;;1.30;0.80;;;;;;;2.55;91.04;98354.39;107884;1271;72566;-80
2022/01/09 04:35:10;;;;;;;1.90;0.60;;;;;;;2.57;91.02;98356.33;107924;1281;73979;-81
2022/01/09 04:37:40;;;;;;;1.50;0.80;;;;;;;2.57;91.38;98358.79;107915;1281;61444;-81
2022/01/09 04:40:10;;;;;;;3.20;1.10;;;;;;;2.57;91.62;98355.23;107845;1281;60597;-80
2022/01/09 04:42:44;;;;;;;2.90;1.00;;;;;;;2.58;91.47;98363.01;107608;1281;73311;-81
2022/01/09 04:45:14;;;;;;;2.10;0.80;;;;;;;2.59;91.68;98364.79;107943;1281;72780;-81
2022/01/09 04:47:44;;;;;;;1.20;0.60;;;;;;;2.58;91.92;98366.10;107737;1282;74200;-81
2022/01/09 04:50:13;;;;;;;1.20;0.70;;;;;;;2.57;92.39;98370.98;107897;1280;59887;-81
2022/01/09 04:52:41;;;;;;;1.80;0.90;;;;;;;2.56;92.52;98370.58;107787;1281;61878;-80
2022/01/09 04:55:08;;;;;;;1.80;1.00;;;;;;;2.53;93.18;98373.12;107781;1281;73628;-80
2022/01/09 04:57:34;;;;;;;1.30;0.80;;;;;;;2.53;93.11;98374.73;107820;1281;70457;-80
2022/01/09 05:00:03;;;;;;;1.30;0.60;;;;;;;2.52;93.45;98373.06;107838;1281;73020;-81
2022/01/09 05:02:29;;;;;;;1.00;0.70;;;;;;;2.52;93.21;98370.48;107778;1281;60616;-80
2022/01/09 05:04:56;;;;;;;1.20;0.90;;;;;;;2.53;93.23;98371.10;107853;1281;60533;-81
2022/01/09 05:07:22;;;;;;;0.90;0.60;;;;;;;2.53;93.25;98372.95;107892;1281;73327;-80
2022/01/09 05:09:49;;;;;;;2.00;0.90;;;;;;;2.55;93.28;98380.27;107801;1281;57793;-80
2022/01/09 05:12:16;;;;;;;1.80;0.90;;;;;;;2.54;93.32;98380.02;107565;1282;73191;-80
2022/01/09 05:14:42;;;;;;;1.20;0.70;;;;;;;2.53;93.58;98385.79;107519;1283;59414;-80
2022/01/09 05:17:11;;;;;;;1.60;0.90;;;;;;;2.50;93.59;98386.79;107910;1280;60441;-80
2022/01/09 05:19:37;;;;;;;1.60;0.70;;;;;;;2.50;93.37;98386.44;107765;1281;74668;-80
2022/01/09 05:22:05;;;;;;;1.90;1.00;;;;;;;2.50;93.76;98393.46;107912;1281;70897;-81
2022/01/09 05:24:32;;;;;;;1.00;0.70;;;;;;;2.48;93.90;98394.83;107850;1281;73092;-80
2022/01/09 05:26:58;;;;;;;1.80;0.80;;;;;;;2.48;94.01;98392.77;107657;1283;61404;-80
2022/01/09 05:29:25;;;;;;;1.00;0.80;;;;;;;2.47;94.02;98396.55;107731;1281;57467;-80
2022/01/09 05:31:52;;;;;;;1.50;0.90;;;;;;;2.46;94.17;98393.70;107749;1281;73423;-80
2022/01/09 05:34:18;;;;;;;1.90;1.00;;;;;;;2.47;94.14;98398.88;107684;1282;72483;-81
2022/01/09 05:36:45;;;;;;;1.50;0.80;;;;;;;2.45;94.47;98400.19;107891;1281;74246;-80
2022/01/09 05:39:12;;;;;;;1.00;0.50;;;;;;;2.44;94.82;98405.60;108317;1277;62590;-80
2022/01/09 05:41:41;;;;;;;0.80;0.50;;;;;;;2.42;94.83;98404.80;108287;1277;60754;-81
2022/01/09 05:44:08;;;;;;;2.30;0.90;;;;;;;2.40;95.01;98405.54;108239;1277;73334;-80
2022/01/09 05:46:35;;;;;;;1.50;1.00;;;;;;;2.39;94.78;98407.73;108271;1277;71496;-81
2022/01/09 05:49:01;;;;;;;1.00;0.50;;;;;;;2.38;95.24;98407.10;108234;1277;72953;-80
2022/01/09 05:51:28;;;;;;;1.50;0.90;;;;;;;2.37;95.33;98412.66;108145;1277;62485;-81
2022/01/09 05:53:54;;;;;;;0.70;0.50;;;;;;;2.37;95.72;98411.00;108322;1277;57505;-80
2022/01/09 05:56:21;;;;;;;2.40;1.00;;;;;;;2.37;95.40;98413.06;108239;1277;57524;-81
2022/01/09 05:58:47;;;;;;;1.70;1.00;;;;;;;2.36;95.39;98417.02;108298;1277;57500;-81
2022/01/09 06:01:14;;;;;;;1.20;0.70;;;;;;;2.36;95.62;98412.60;108226;1277;57811;-80
2022/01/09 06:03:40;;;;;;;1.50;1.00;;;;;;;2.36;95.48;98419.02;108263;1277;57702;-81
2022/01/09 06:06:07;;;;;;;2.30;0.70;;;;;;;2.37;95.29;98420.11;108260;1277;60527;-81
2022/01/09 06:08:34;;;;;;;1.60;1.00;;;;;;;2.38;95.45;98420.05;108288;1277;58154;-81
2022/01/09 06:11:00;;;;;;;1.40;0.80;;;;;;;2.39;95.05;98426.74;108128;1277;57787;-80
2022/01/09 06:13:27;;;;;;;3.50;1.60;;;;;;;2.39;95.16;98428.64;108112;1278;57850;-80
2022/01/09 06:15:54;;;;;;;1.50;0.90;;;;;;;2.39;95.30;98435.28;108241;1277;61619;-80
2022/01/09 06:18:21;;;;;;;1.60;1.10;;;;;;;2.41;95.51;98435.39;108340;1277;61703;-81
2022/01/09 06:20:49;;;;;;;1.40;0.90;;;;;;;2.42;95.32;98438.06;108258;1277;73313;-81
2022/01/09 06:23:20;;;;;;;1.50;1.00;;;;;;;2.42;95.59;98443.16;108262;1277;72455;-80
2022/01/09 06:25:51;;;;;;;0.90;0.60;;;;;;;2.40;95.48;98437.92;108004;1277;74220;-81
2022/01/09 06:28:18;;;;;;;0.80;0.50;;;;;;;2.39;95.92;98436.98;108297;1276;59582;-80
2022/01/09 06:30:45;;;;;;;1.40;1.00;;;;;;;2.38;95.77;98441.30;108262;1277;60295;-81
2022/01/09 06:33:13;;;;;;;1.40;0.70;;;;;;;2.38;95.89;98445.40;108269;1277;73874;-81
2022/01/09 06:35:40;;;;;;;1.10;0.80;;;;;;;2.37;95.89;98448.45;108261;1277;72352;-81
2022/01/09 06:38:07;;;;;;;1.30;0.80;;;;;;;2.38;96.20;98455.77;108161;1277;72868;-81
2022/01/09 06:40:34;;;;;;;1.20;0.70;;;;;;;2.38;96.03;98462.21;108040;1277;63006;-81
2022/01/09 06:43:01;;;;;;;2.00;1.00;;;;;;;2.36;96.30;98458.83;108162;1277;61890;-81
2022/01/09 06:45:27;;;;;;;1.40;0.80;;;;;;;2.39;96.21;98464.90;108227;1277;58353;-81
2022/01/09 06:47:55;;;;;;;1.10;0.70;;;;;;;2.40;96.08;98464.70;108124;1279;71633;-81
2022/01/09 06:50:23;;;;;;;1.50;0.70;;;;;;;2.38;96.31;98471.69;108272;1277;73421;-81
2022/01/09 06:52:49;;;;;;;1.20;0.70;;;;;;;2.36;96.54;98474.23;108270;1277;61321;-81
2022/01/09 06:55:16;;;;;;;2.10;1.00;;;;;;;2.35;96.40;98476.59;108232;1277;58278;-81
2022/01/09 06:57:43;;;;;;;1.40;1.00;;;;;;;2.34;96.59;98482.38;108206;1277;75188;-82
2022/01/09 07:00:12;;;;;;;1.30;0.90;;;;;;;2.31;96.88;98484.61;108290;1277;71369;-81
2022/01/09 07:02:39;;;;;;;1.60;0.80;;;;;;;2.28;96.67;98486.77;108084;1280;72383;-81
2022/01/09 07:05:06;;;;;;;1.50;0.80;;;;;;;2.25;97.02;98494.30;108289;1277;61198;-81
2022/01/09 07:07:33;;;;;;;2.30;1.20;;;;;;;2.21;96.99;98503.45;108110;1277;60721;-81
2022/01/09 07:12:47;;;;;;;2.20;1.30;;;;;;;2.15;97.46;98508.37;108620;1268;66621;-80
2022/01/09 07:21:03;;;;;;;1.80;1.20;;;;;;;1.99;97.77;98522.13;108037;1270;59470;-81
2022/01/09 07:23:30;;;;;;;2.60;1.40;;;;;;;1.96;98.07;98525.94;107642;1281;74156;-81
2022/01/09 07:25:58;;;;;;;2.40;1.60;;;;;;;1.94;98.15;98527.71;107625;1282;71330;-80
2022/01/09 07:28:25;;;;;;;2.00;1.30;;;;;;;1.93;98.49;98535.09;107652;1281;58230;-79
2022/01/09 07:30:51;;;;;;;2.40;1.60;;;;;;;1.90;98.50;98535.27;107690;1281;58388;-79
2022/01/09 07:33:17;;;;;;;3.40;1.50;;;;;;;1.88;98.70;98539.27;107518;1282;58396;-79
2022/01/09 07:35:44;;;;;;;1.90;1.30;;;;;;;1.85;98.90;98548.14;107682;1281;58615;-80
2022/01/09 07:38:11;;;;;;;2.30;1.50;;;;;;;1.82;98.91;98547.03;107504;1283;71419;-79
2022/01/09 07:40:47;;;;;;;1.90;1.20;;;;;;;1.81;99.15;98552.80;107595;1282;72706;-79
2022/01/09 07:43:13;;;;;;;2.10;1.10;;;;;;;1.79;98.90;98555.98;107559;1283;62831;-79
2022/01/09 07:45:40;;;;;;;1.60;0.90;;;;;;;1.78;99.00;98559.06;107685;1282;60583;-80
2022/01/09 07:48:07;;;;;;;1.40;0.90;;;;;;;1.75;99.45;98567.16;107658;1282;75055;-80
2022/01/09 07:50:34;;;;;;;1.70;1.00;;;;;;;1.73;99.56;98568.87;107501;1283;71810;-79
2022/01/09 07:53:00;;;;;;;2.90;1.00;;;;;;;1.72;99.83;98574.02;107640;1270;58623;-78
2022/01/09 07:55:27;;;;;;;1.40;1.00;;;;;;;1.71;99.94;98574.70;107525;1270;64158;-78
2022/01/09 07:57:54;;;;;;;1.20;0.70;;;;;;;1.69;99.93;98585.16;107688;1280;58664;-80
2022/01/09 08:00:23;;;;;;;2.10;1.10;;;;;;;1.68;99.97;98587.48;107681;1280;75131;-79
2022/01/09 08:02:51;;;;;;;1.70;1.20;;;;;;;1.68;99.99;98592.27;107839;1280;58333;-78
2022/01/09 08:05:18;;;;;;;3.20;1.30;;;;;;;1.67;100.00;98598.47;107780;1280;72784;-79
2022/01/09 08:07:45;;;;;;;5.60;1.90;;;;;;;1.65;99.97;98603.90;107821;1281;61334;-77
2022/01/09 08:10:12;;;;;;;5.00;1.70;;;;;;;1.62;99.74;98611.97;107824;1281;60586;-78
2022/01/09 08:12:39;;;;;;;1.70;0.80;;;;;;;1.59;99.67;98611.99;107811;1280;74011;-78
2022/01/09 08:15:06;;;;;;;1.90;0.90;;;;;;;1.56;99.85;98618.59;107617;1281;72463;-78
2022/01/09 08:17:32;;;;;;;0.60;0.50;;;;;;;1.53;99.87;98618.41;107754;1281;74034;-78
2022/01/09 08:19:59;;;;;;;0.70;0.30;;;;;;;1.50;99.87;98625.55;107723;1280;61410;-77
2022/01/09 08:22:29;;;;;;;0.80;0.50;;;;;;;1.48;99.87;98626.63;107775;1280;61863;-77
2022/01/09 08:24:56;;;;;;;2.00;0.90;;;;;;;1.47;99.94;98629.73;107791;1280;75512;-78
2022/01/09 08:27:23;;;;;;;2.00;0.60;;;;;;;1.45;100.00;98632.35;107806;1278;72474;-77
2022/01/09 08:29:49;;;;;;;1.90;0.80;;;;;;;1.44;100.00;98638.91;107597;1281;73015;-77
2022/01/09 08:32:16;;;;;;;1.20;0.70;;;;;;;1.43;100.00;98641.98;107757;1280;59030;-77
2022/01/09 08:34:43;;;;;;;0.90;0.60;;;;;;;1.43;100.00;98640.70;107573;1281;60355;-78
2022/01/09 08:37:12;;;;;;;1.30;0.60;;;;;;;1.44;100.00;98646.95;107639;1283;73939;-77
2022/01/09 08:39:44;;;;;;;3.50;1.10;;;;;;;1.45;100.00;98649.92;107618;1282;73657;-77
2022/01/09 08:42:11;;;;;;;1.70;0.90;;;;;;;1.47;100.00;98655.16;107567;1283;72879;-77
2022/01/09 08:44:38;;;;;;;0.90;0.60;;;;;;;1.48;100.00;98661.11;107620;1283;61445;-77
2022/01/09 08:47:06;;;;;;;2.50;0.60;;;;;;;1.50;100.00;98664.17;107658;1283;60657;-76
2022/01/09 08:49:35;;;;;;;1.60;0.40;;;;;;;1.52;100.00;98661.08;107642;1281;74031;-76
2022/01/09 08:52:03;;;;;;;1.10;0.60;;;;;;;1.52;100.00;98666.06;107572;1282;72553;-77
2022/01/09 08:54:30;;;;;;;1.80;0.90;;;;;;;1.52;100.00;98667.44;107420;1282;74109;-77
2022/01/09 08:56:57;;;;;;;2.00;0.60;;;;;;;1.53;100.00;98671.59;107608;1283;60823;-77
2022/01/09 08:59:25;;;;;;;2.20;1.00;;;;;;;1.53;100.00;98677.46;107644;1281;61564;-77
2022/01/09 09:01:53;;;;;;;2.60;1.00;;;;;;;1.55;100.00;98683.52;107651;1282;73865;-76
2022/01/09 09:04:20;;;;;;;1.60;0.90;;;;;;;1.56;100.00;98684.12;107676;1282;71385;-76
2022/01/09 09:06:46;;;;;;;1.10;0.60;;;;;;;1.56;100.00;98682.48;107646;1282;58358;-77
2022/01/09 09:09:13;;;;;;;2.40;1.10;;;;;;;1.56;100.00;98686.94;107566;1283;63679;-77
2022/01/09 09:11:40;;;;;;;3.90;1.80;;;;;;;1.57;100.00;98694.25;107512;1282;58142;-76
2022/01/09 09:14:06;;;;;;;3.40;1.20;;;;;;;1.60;100.00;98699.83;107632;1282;74146;-77
2022/01/09 09:16:33;;;;;;;2.20;1.00;;;;;;;1.62;100.00;98704.66;107610;1282;72403;-77
2022/01/09 09:19:00;;;;;;;1.90;1.10;;;;;;;1.65;100.00;98710.50;107675;1282;74130;-76
2022/01/09 09:21:27;;;;;;;3.50;1.70;;;;;;;1.69;100.00;98717.55;107431;1283;61232;-75
2022/01/09 09:23:54;;;;;;;2.30;1.20;;;;;;;1.76;100.00;98718.73;107839;1281;60376;-75
2022/01/09 09:26:21;;;;;;;3.00;1.10;;;;;;;1.82;100.00;98721.74;107847;1280;74270;-76
2022/01/09 09:28:48;;;;;;;2.70;1.20;;;;;;;1.89;100.00;98724.65;107705;1280;71557;-77
2022/01/09 09:31:15;;;;;;;2.10;1.10;;;;;;;1.96;100.00;98729.27;107811;1280;74079;-74
2022/01/09 09:33:41;;;;;;;4.00;0.90;;;;;;;2.00;100.00;98731.77;107767;1281;61121;-77
2022/01/09 09:36:07;;;;;;;2.90;1.20;;;;;;;2.03;100.00;98741.20;107848;1281;58295;-74
2022/01/09 09:38:34;;;;;;;3.10;1.30;;;;;;;2.10;100.00;98741.04;107819;1281;58866;-75
2022/01/09 09:41:00;;;;;;;5.30;1.90;;;;;;;2.15;100.00;98739.92;107840;1281;58409;-77
2022/01/09 09:43:27;;;;;;;3.80;1.90;;;;;;;2.19;100.00;98741.96;107804;1280;60230;-75
2022/01/09 09:45:54;;;;;;;4.20;2.10;;;;;;;2.22;100.00;98748.06;107816;1280;60398;-76
2022/01/09 09:48:22;;;;;;;2.70;1.40;;;;;;;2.24;100.00;98748.83;107809;1280;58383;-76
2022/01/09 09:50:49;;;;;;;5.10;2.10;;;;;;;2.28;100.00;98749.31;107839;1281;74128;-78
2022/01/09 09:53:16;;;;;;;2.00;1.10;;;;;;;2.32;100.00;98748.71;107632;1282;72421;-77
2022/01/09 09:55:44;;;;;;;3.20;1.30;;;;;;;2.34;100.00;98751.12;107697;1281;58445;-75
2022/01/09 09:58:12;;;;;;;4.40;1.50;;;;;;;2.37;100.00;98756.64;107672;1281;63763;-75
2022/01/09 10:00:39;;;;;;;3.60;1.10;;;;;;;2.39;100.00;98757.16;107784;1281;61647;-75
2022/01/09 10:03:07;;;;;;;2.00;1.00;;;;;;;2.36;100.00;98763.45;107738;1281;74076;-76
2022/01/09 10:05:38;;;;;;;1.70;1.00;;;;;;;2.31;100.00;98772.14;107781;1281;71209;-75
2022/01/09 10:08:09;;;;;;;2.10;0.60;;;;;;;2.25;100.00;98773.88;107684;1281;74140;-77
2022/01/09 10:10:38;;;;;;;2.00;0.90;;;;;;;2.20;100.00;98774.36;107747;1280;61438;-77
2022/01/09 10:13:17;;;;;;;1.70;0.80;;;;;;;2.18;100.00;98779.73;107789;1280;60426;-77
2022/01/09 10:15:48;;;;;;;1.60;0.80;;;;;;;2.17;100.00;98782.70;107809;1280;73249;-76
2022/01/09 10:18:36;;;;;;;2.10;0.90;;;;;;;2.17;100.00;98788.52;107867;1280;71482;-77
2022/01/09 10:21:09;;;;;;;3.10;1.00;;;;;;;2.18;100.00;98795.08;107685;1281;72904;-77
2022/01/09 10:24:02;;;;;;;1.10;0.60;;;;;;;2.18;100.00;98792.54;107814;1280;61165;-78
2022/01/09 10:26:32;;;;;;;1.60;0.80;;;;;;;2.20;100.00;98798.61;107816;1280;60618;-78
2022/01/09 10:28:59;;;;;;;1.20;0.90;;;;;;;2.22;100.00;98802.45;107795;1280;74174;-76
2022/01/09 10:31:26;;;;;;;4.40;1.40;;;;;;;2.25;100.00;98804.75;107783;1280;72846;-78
2022/01/09 10:34:02;;;;;;;1.40;0.90;;;;;;;2.28;100.00;98804.98;107817;1280;72629;-76
2022/01/09 10:36:39;;;;;;;2.40;1.30;;;;;;;2.31;100.00;98802.52;107776;1280;62194;-77
2022/01/09 10:39:11;;;;;;;3.50;1.10;;;;;;;2.35;100.00;98803.09;107735;1280;60664;-76
2022/01/09 10:41:49;;;;;;;1.30;0.70;;;;;;;2.35;100.00;98804.69;107824;1280;74116;-77
2022/01/09 10:44:21;;;;;;;1.60;1.00;;;;;;;2.33;100.00;98815.52;107652;1281;71828;-77
2022/01/09 10:46:59;;;;;;;1.60;1.00;;;;;;;2.34;100.00;98819.73;107841;1280;72916;-77
2022/01/09 10:49:49;;;;;;;2.00;1.10;;;;;;;2.38;100.00;98823.55;107774;1279;61587;-76
2022/01/09 10:52:30;;;;;;;2.50;1.50;;;;;;;2.45;100.00;98826.98;107910;1281;62049;-77
2022/01/09 10:55:03;;;;;;;3.50;1.60;;;;;;;2.53;100.00;98829.66;107783;1280;75142;-76
2022/01/09 10:57:32;;;;;;;2.50;1.30;;;;;;;2.59;100.00;98829.60;107855;1280;71689;-77
2022/01/09 11:00:16;;;;;;;3.90;1.50;;;;;;;2.67;100.00;98826.50;107833;1281;73971;-77
2022/01/09 11:02:46;;;;;;;5.00;1.40;;;;;;;2.76;100.00;98829.99;107719;1282;62412;-77
2022/01/09 11:05:13;;;;;;;6.20;1.90;;;;;;;2.89;100.00;98835.01;107829;1281;61894;-77
2022/01/09 11:07:46;;;;;;;7.40;1.40;;;;;;;3.04;100.00;98837.23;107923;1281;73379;-77
2022/01/09 11:10:14;;;;;;;8.40;1.40;;;;;;;3.16;100.00;98836.60;107650;1281;71555;-77
2022/01/09 11:12:47;;;;;;;7.20;2.80;;;;;;;3.30;100.00;98834.64;107886;1281;73688;-77
2022/01/09 11:15:18;;;;;;;9.00;2.10;;;;;;;3.46;100.00;98835.38;107797;1281;61439;-78
2022/01/09 11:17:45;;;;;;;11.00;2.00;;;;;;;3.62;100.00;98842.67;107888;1280;60724;-77
2022/01/09 11:20:12;;;;;;;14.90;2.80;;;;;;;3.76;100.00;98846.30;107907;1281;74241;-77
2022/01/09 11:22:39;;;;;;;7.50;1.60;;;;;;;3.90;100.00;98849.77;107740;1282;58342;-77
2022/01/09 11:25:24;;;;;;;8.80;1.80;;;;;;;4.01;100.00;98857.92;107748;1281;74272;-77
2022/01/09 11:27:58;;;;;;;9.60;1.20;;;;;;;4.12;100.00;98861.14;107877;1281;62325;-76
2022/01/09 11:30:50;;;;;;;3.40;1.40;;;;;;;4.17;100.00;98864.38;107896;1281;62214;-79
2022/01/09 11:33:40;;;;;;;13.30;2.10;;;;;;;4.21;100.00;98867.72;107731;1281;75809;-76
2022/01/09 11:36:28;;;;;;;11.00;2.30;;;;;;;4.22;100.00;98883.71;107891;1280;72598;-78
2022/01/09 11:39:17;;;;;;;3.90;1.40;;;;;;;4.24;100.00;98889.08;107869;1281;74194;-79
2022/01/09 11:41:45;;;;;;;8.30;1.70;;;;;;;4.25;100.00;98894.18;107866;1280;63588;-76
2022/01/09 11:44:15;;;;;;;9.60;2.10;;;;;;;4.23;100.00;98901.39;107804;1281;60671;-77
2022/01/09 11:46:58;;;;;;;7.20;1.70;;;;;;;4.22;100.00;98899.95;107888;1281;74073;-77
2022/01/09 11:49:31;;;;;;;2.20;1.60;;;;;;;4.21;100.00;98911.42;107895;1281;71448;-77
2022/01/09 11:51:59;;;;;;;11.70;2.10;;;;;;;4.20;100.00;98906.50;107574;1281;73084;-77